Time;durP1;ratioP1;P1;durP2;ratioP2;P2;SDS_P1;SDS_P2;PMS_P1;PMS_P2;Temp;Humidity;BMP_temperature;BMP_pressure;BME280_temperature;BME280_humidity;BME280_pressure;Samples;Min_cycle;Max_cycle;Signal;HPM_P1;HPM_P2
2023/09/04 00:01:07;;;;;;;7.23;6.50;;;;;;;;;;5093376;28;20528;-62
2023/09/04 00:03:36;;;;;;;7.00;6.30;;;;;;;;;;5092844;28;20471;-62
2023/09/04 00:06:03;;;;;;;7.70;6.03;;;;;;;;;;5092616;28;20922;-62
2023/09/04 00:08:30;;;;;;;7.23;6.53;;;;;;;;;;5092178;28;20451;-62
2023/09/04 00:10:58;;;;;;;8.63;5.73;;;;;;;;;;5093044;28;20807;-62
2023/09/04 00:13:25;;;;;;;8.00;7.00;;;;;;;;;;5092443;28;20449;-62
2023/09/04 00:15:55;;;;;;;8.73;6.17;;;;;;;;;;5096362;28;20438;-62
2023/09/04 00:18:22;;;;;;;6.80;6.20;;;;;;;;;;5096439;28;20936;-62
2023/09/04 00:20:52;;;;;;;7.87;6.97;;;;;;;;;;5096361;28;20473;-61
2023/09/04 00:23:19;;;;;;;8.13;6.83;;;;;;;;;;5096471;28;20470;-62
2023/09/04 00:25:46;;;;;;;12.70;7.43;;;;;;;;;;5096147;28;20478;-62
2023/09/04 00:28:14;;;;;;;8.23;7.27;;;;;;;;;;5095763;28;20451;-62
2023/09/04 00:30:41;;;;;;;8.83;7.10;;;;;;;;;;5096341;28;20670;-62
2023/09/04 00:33:08;;;;;;;8.03;7.30;;;;;;;;;;5095748;28;20438;-62
2023/09/04 00:35:35;;;;;;;8.40;7.53;;;;;;;;;;5095771;28;20447;-62
2023/09/04 00:38:04;;;;;;;8.67;7.50;;;;;;;;;;5096342;28;20861;-62
2023/09/04 00:40:31;;;;;;;10.13;6.83;;;;;;;;;;5095668;28;20869;-62
2023/09/04 00:42:58;;;;;;;7.80;7.00;;;;;;;;;;5095856;28;20441;-62
2023/09/04 00:45:25;;;;;;;6.77;6.07;;;;;;;;;;5095864;28;20534;-62
2023/09/04 00:47:53;;;;;;;10.27;7.87;;;;;;;;;;5095623;28;20998;-62
2023/09/04 00:50:22;;;;;;;8.00;7.03;;;;;;;;;;5095535;28;20442;-62
2023/09/04 00:52:50;;;;;;;8.27;7.47;;;;;;;;;;5095412;28;20446;-63
2023/09/04 00:55:19;;;;;;;7.13;6.63;;;;;;;;;;5096035;28;20960;-62
2023/09/04 00:57:46;;;;;;;8.50;7.60;;;;;;;;;;5095525;28;20438;-62
2023/09/04 01:00:14;;;;;;;8.17;7.37;;;;;;;;;;5095463;28;20438;-62
2023/09/04 01:02:41;;;;;;;8.57;7.50;;;;;;;;;;5095101;28;20808;-62
2023/09/04 01:05:09;;;;;;;8.27;7.40;;;;;;;;;;5095236;28;20566;-63
2023/09/04 01:07:37;;;;;;;8.33;6.90;;;;;;;;;;5095734;28;20451;-63
2023/09/04 01:10:07;;;;;;;7.50;6.80;;;;;;;;;;5095235;28;20485;-63
2023/09/04 01:12:41;;;;;;;8.50;7.23;;;;;;;;;;5095197;28;20442;-63
2023/09/04 01:15:10;;;;;;;8.30;6.80;;;;;;;;;;5095281;28;20431;-62
2023/09/04 01:17:38;;;;;;;9.30;7.83;;;;;;;;;;5095678;28;20893;-62
2023/09/04 01:20:14;;;;;;;7.00;6.17;;;;;;;;;;5094817;28;20448;-62
2023/09/04 01:22:42;;;;;;;8.63;7.73;;;;;;;;;;5095192;28;20507;-62
2023/09/04 01:25:10;;;;;;;8.53;7.63;;;;;;;;;;5094581;28;20569;-62
2023/09/04 01:27:41;;;;;;;8.23;7.47;;;;;;;;;;5095355;28;20537;-62
2023/09/04 01:30:11;;;;;;;8.67;7.07;;;;;;;;;;5095266;28;20425;-62
2023/09/04 01:32:40;;;;;;;7.83;7.03;;;;;;;;;;5095006;28;20501;-62
2023/09/04 01:35:08;;;;;;;8.07;7.30;;;;;;;;;;5094640;28;20537;-62
2023/09/04 01:37:36;;;;;;;9.23;8.43;;;;;;;;;;5094638;28;20443;-62
2023/09/04 01:40:04;;;;;;;9.00;7.10;;;;;;;;;;5094511;28;20440;-62
2023/09/04 01:42:32;;;;;;;8.20;7.40;;;;;;;;;;5094839;28;20431;-62
2023/09/04 01:44:59;;;;;;;8.83;7.47;;;;;;;;;;5094724;28;20820;-62
2023/09/04 01:47:26;;;;;;;7.57;6.90;;;;;;;;;;5094712;28;20526;-62
2023/09/04 01:49:53;;;;;;;8.70;7.90;;;;;;;;;;5094621;28;20448;-62
2023/09/04 01:52:21;;;;;;;9.13;8.33;;;;;;;;;;5094911;28;20461;-62
2023/09/04 01:54:48;;;;;;;8.53;7.73;;;;;;;;;;5094633;28;20803;-62
2023/09/04 01:57:17;;;;;;;8.20;7.40;;;;;;;;;;5094639;28;20482;-61
2023/09/04 01:59:44;;;;;;;10.03;9.03;;;;;;;;;;5094313;28;20442;-62
2023/09/04 02:02:11;;;;;;;8.50;7.40;;;;;;;;;;5093911;28;20534;-62
2023/09/04 02:04:38;;;;;;;9.00;7.90;;;;;;;;;;5094381;28;20882;-62
2023/09/04 02:07:06;;;;;;;11.67;9.17;;;;;;;;;;5094403;28;20484;-62
2023/09/04 02:09:34;;;;;;;9.60;8.60;;;;;;;;;;5094080;28;20889;-62
2023/09/04 02:12:01;;;;;;;9.50;8.60;;;;;;;;;;5094140;28;20473;-62
2023/09/04 02:14:29;;;;;;;11.30;8.23;;;;;;;;;;5093778;28;20676;-62
2023/09/04 02:16:56;;;;;;;10.50;9.60;;;;;;;;;;5094465;28;20455;-62
2023/09/04 02:19:24;;;;;;;9.27;8.10;;;;;;;;;;5093985;28;20445;-62
2023/09/04 02:21:51;;;;;;;10.30;9.30;;;;;;;;;;5093658;28;20541;-62
2023/09/04 02:24:18;;;;;;;9.40;8.53;;;;;;;;;;5094060;28;20533;-62
2023/09/04 02:26:45;;;;;;;10.37;9.40;;;;;;;;;;5093697;28;21009;-62
2023/09/04 02:29:12;;;;;;;9.90;9.00;;;;;;;;;;5093798;28;20811;-62
2023/09/04 02:31:42;;;;;;;10.37;9.47;;;;;;;;;;5093966;28;20442;-62
2023/09/04 02:34:10;;;;;;;9.23;8.43;;;;;;;;;;5094426;28;20484;-62
2023/09/04 02:36:37;;;;;;;9.47;8.63;;;;;;;;;;5093392;28;20449;-62
2023/09/04 02:39:04;;;;;;;11.40;9.23;;;;;;;;;;5092853;28;20924;-62
2023/09/04 02:41:31;;;;;;;9.90;8.67;;;;;;;;;;5094018;28;20434;-62
2023/09/04 02:43:58;;;;;;;11.00;9.90;;;;;;;;;;5093424;28;20479;-62
2023/09/04 02:46:31;;;;;;;13.73;10.57;;;;;;;;;;5093301;28;20816;-62
2023/09/04 02:49:00;;;;;;;9.70;8.70;;;;;;;;;;5093420;28;20428;-62
2023/09/04 02:51:27;;;;;;;10.97;9.10;;;;;;;;;;5093428;28;20515;-62
2023/09/04 02:53:54;;;;;;;14.83;9.93;;;;;;;;;;5093509;28;20465;-62
2023/09/04 02:56:21;;;;;;;10.43;9.47;;;;;;;;;;5093359;28;20482;-62
2023/09/04 02:58:49;;;;;;;12.53;9.73;;;;;;;;;;5093256;28;20954;-62
2023/09/04 03:01:16;;;;;;;10.67;9.60;;;;;;;;;;5093325;28;20434;-61
2023/09/04 03:03:44;;;;;;;12.30;9.67;;;;;;;;;;5093518;28;20442;-61
2023/09/04 03:06:12;;;;;;;11.53;10.07;;;;;;;;;;5093525;28;20482;-62
2023/09/04 03:08:40;;;;;;;11.47;10.33;;;;;;;;;;5093338;28;20523;-62
2023/09/04 03:11:10;;;;;;;10.83;9.73;;;;;;;;;;5092961;28;20466;-62
2023/09/04 03:13:37;;;;;;;11.87;10.53;;;;;;;;;;5093062;28;20438;-62
2023/09/04 03:16:06;;;;;;;10.93;10.00;;;;;;;;;;5092962;28;20936;-61
2023/09/04 03:18:33;;;;;;;18.23;11.13;;;;;;;;;;5093769;28;20441;-61
2023/09/04 03:21:00;;;;;;;10.77;9.67;;;;;;;;;;5093504;28;20442;-62
2023/09/04 03:23:29;;;;;;;12.13;10.93;;;;;;;;;;5093652;28;20446;-62
2023/09/04 03:25:57;;;;;;;14.13;10.30;;;;;;;;;;5093410;28;20482;-61
2023/09/04 03:28:24;;;;;;;10.87;9.50;;;;;;;;;;5093544;28;20800;-62
2023/09/04 03:30:51;;;;;;;11.10;10.10;;;;;;;;;;5093430;28;20462;-62
2023/09/04 03:33:18;;;;;;;12.00;10.80;;;;;;;;;;5093297;28;20437;-62
2023/09/04 03:35:46;;;;;;;10.43;9.33;;;;;;;;;;5093391;28;20533;-62
2023/09/04 03:38:13;;;;;;;12.87;11.27;;;;;;;;;;5092878;28;20480;-63
2023/09/04 03:40:42;;;;;;;12.97;11.67;;;;;;;;;;5093307;28;20438;-62
2023/09/04 03:43:09;;;;;;;11.43;10.10;;;;;;;;;;5093450;28;20560;-61
2023/09/04 03:45:36;;;;;;;12.70;11.40;;;;;;;;;;5093058;28;20979;-61
2023/09/04 03:48:04;;;;;;;13.97;11.67;;;;;;;;;;5093381;28;20525;-62
2023/09/04 03:50:32;;;;;;;12.87;11.63;;;;;;;;;;5097169;28;20797;-61
2023/09/04 03:53:00;;;;;;;12.50;11.30;;;;;;;;;;5097504;28;20479;-62
2023/09/04 03:55:27;;;;;;;10.60;9.60;;;;;;;;;;5096698;28;20439;-61
2023/09/04 03:57:55;;;;;;;11.60;10.60;;;;;;;;;;5097105;28;20454;-61
2023/09/04 04:00:23;;;;;;;12.87;11.57;;;;;;;;;;5096629;28;20430;-61
2023/09/04 04:02:51;;;;;;;14.80;12.10;;;;;;;;;;5096497;28;20532;-61
2023/09/04 04:05:19;;;;;;;12.40;11.17;;;;;;;;;;5096076;28;20855;-61
2023/09/04 04:07:46;;;;;;;21.20;11.30;;;;;;;;;;5096650;28;20442;-62
2023/09/04 04:10:13;;;;;;;13.30;11.90;;;;;;;;;;5096802;28;20887;-61
2023/09/04 04:12:41;;;;;;;12.37;11.07;;;;;;;;;;5096198;28;20950;-61
2023/09/04 04:15:11;;;;;;;11.93;10.80;;;;;;;;;;5096422;28;20477;-61
2023/09/04 04:17:39;;;;;;;11.70;10.50;;;;;;;;;;5096257;28;20475;-61
2023/09/04 04:20:10;;;;;;;12.13;11.00;;;;;;;;;;5096869;28;20432;-61
2023/09/04 04:22:38;;;;;;;14.13;11.37;;;;;;;;;;5096207;28;20494;-61
2023/09/04 04:25:05;;;;;;;12.73;11.53;;;;;;;;;;5095992;28;20454;-61
2023/09/04 04:27:32;;;;;;;13.50;12.10;;;;;;;;;;5096111;28;20481;-61
2023/09/04 04:30:00;;;;;;;13.07;11.77;;;;;;;;;;5096062;28;20958;-61
2023/09/04 04:32:28;;;;;;;14.70;11.53;;;;;;;;;;5095964;28;20485;-61
2023/09/04 04:34:56;;;;;;;13.30;12.10;;;;;;;;;;5095994;28;20825;-61
2023/09/04 04:37:23;;;;;;;11.87;10.77;;;;;;;;;;5095639;28;20493;-61
2023/09/04 04:39:52;;;;;;;15.03;10.93;;;;;;;;;;5095689;28;20533;-61
2023/09/04 04:42:19;;;;;;;12.50;11.40;;;;;;;;;;5096181;28;20476;-70
2023/09/04 04:44:47;;;;;;;15.20;11.50;;;;;;;;;;5095994;28;20802;-61
2023/09/04 04:47:14;;;;;;;12.73;11.53;;;;;;;;;;5095783;28;20487;-61
2023/09/04 04:49:42;;;;;;;12.73;11.63;;;;;;;;;;5095578;28;20474;-61
2023/09/04 04:52:10;;;;;;;12.77;11.70;;;;;;;;;;5095526;28;20811;-61
2023/09/04 04:54:37;;;;;;;14.83;11.13;;;;;;;;;;5095577;28;20473;-61
2023/09/04 04:57:05;;;;;;;12.87;11.57;;;;;;;;;;5095598;28;20506;-61
2023/09/04 04:59:32;;;;;;;14.10;11.47;;;;;;;;;;5095866;28;20436;-60
2023/09/04 05:02:00;;;;;;;14.63;12.63;;;;;;;;;;5094144;28;20560;-61
2023/09/04 05:04:27;;;;;;;13.10;11.77;;;;;;;;;;5095827;28;20446;-60
2023/09/04 05:06:55;;;;;;;12.50;11.30;;;;;;;;;;5095133;28;20490;-61
2023/09/04 05:09:23;;;;;;;12.30;11.10;;;;;;;;;;5095222;28;20435;-61
2023/09/04 05:11:50;;;;;;;10.97;9.97;;;;;;;;;;5095040;28;20926;-61
2023/09/04 05:14:17;;;;;;;12.37;11.10;;;;;;;;;;5095569;28;20441;-61
2023/09/04 05:16:44;;;;;;;12.07;10.97;;;;;;;;;;5095492;28;20467;-61
2023/09/04 05:19:12;;;;;;;14.70;13.27;;;;;;;;;;5095745;28;20480;-61
2023/09/04 05:21:39;;;;;;;13.37;11.80;;;;;;;;;;5095002;28;20442;-61
2023/09/04 05:24:08;;;;;;;12.70;11.40;;;;;;;;;;5094850;28;20548;-61
2023/09/04 05:26:35;;;;;;;13.27;11.20;;;;;;;;;;5094759;28;20484;-61
2023/09/04 05:29:02;;;;;;;12.40;11.33;;;;;;;;;;5094720;28;20442;-61
2023/09/04 05:31:29;;;;;;;14.87;10.20;;;;;;;;;;5095084;28;20454;-62
2023/09/04 05:33:56;;;;;;;15.50;12.27;;;;;;;;;;5094996;28;20530;-61
2023/09/04 05:36:24;;;;;;;12.20;10.87;;;;;;;;;;5094848;28;20510;-61
2023/09/04 05:38:51;;;;;;;13.63;12.07;;;;;;;;;;5094921;28;20481;-62
2023/09/04 05:41:20;;;;;;;13.33;11.77;;;;;;;;;;5095092;28;20919;-61
2023/09/04 05:43:47;;;;;;;13.30;11.47;;;;;;;;;;5094657;28;20443;-62
2023/09/04 05:46:14;;;;;;;12.57;11.37;;;;;;;;;;5094982;28;20552;-61
2023/09/04 05:48:41;;;;;;;12.83;11.63;;;;;;;;;;5094575;28;20534;-63
2023/09/04 05:51:08;;;;;;;12.67;11.57;;;;;;;;;;5094416;28;20439;-62
2023/09/04 05:53:35;;;;;;;12.40;11.30;;;;;;;;;;5095027;28;20875;-62
2023/09/04 05:56:04;;;;;;;14.00;11.20;;;;;;;;;;5095163;28;20512;-62
2023/09/04 05:58:33;;;;;;;14.20;12.40;;;;;;;;;;5094363;28;20449;-62
2023/09/04 06:01:00;;;;;;;12.73;11.57;;;;;;;;;;5094443;28;21003;-62
2023/09/04 06:03:28;;;;;;;12.70;11.50;;;;;;;;;;5094562;28;20488;-62
2023/09/04 06:05:55;;;;;;;12.10;10.90;;;;;;;;;;5094791;28;20444;-61
2023/09/04 06:08:22;;;;;;;11.80;10.80;;;;;;;;;;5094656;28;20487;-62
2023/09/04 06:10:49;;;;;;;11.17;10.13;;;;;;;;;;5094208;28;20457;-61
2023/09/04 06:13:16;;;;;;;11.90;10.90;;;;;;;;;;5094271;28;20447;-62
2023/09/04 06:15:45;;;;;;;15.50;10.80;;;;;;;;;;5094182;28;20441;-61
2023/09/04 06:18:12;;;;;;;11.80;10.13;;;;;;;;;;5094825;28;20541;-63
2023/09/04 06:20:39;;;;;;;13.63;10.40;;;;;;;;;;5094236;28;20477;-62
2023/09/04 06:23:07;;;;;;;12.20;10.00;;;;;;;;;;5094195;28;20532;-62
2023/09/04 06:25:38;;;;;;;12.40;11.20;;;;;;;;;;5093848;28;20524;-62
2023/09/04 06:28:06;;;;;;;10.47;9.50;;;;;;;;;;5093753;28;20517;-61
2023/09/04 06:30:33;;;;;;;17.77;15.50;;;;;;;;;;5093689;28;20463;-62
2023/09/04 06:33:02;;;;;;;19.63;15.97;;;;;;;;;;5093966;28;20435;-62
2023/09/04 06:35:29;;;;;;;16.73;10.40;;;;;;;;;;5093781;28;20445;-61
2023/09/04 06:37:56;;;;;;;10.67;9.47;;;;;;;;;;5093687;28;20437;-62
2023/09/04 06:40:24;;;;;;;11.43;10.33;;;;;;;;;;5094031;28;20444;-62
2023/09/04 06:42:53;;;;;;;10.27;9.30;;;;;;;;;;5093992;28;20468;-62
2023/09/04 06:45:20;;;;;;;13.07;9.90;;;;;;;;;;5093656;28;20474;-62
2023/09/04 06:47:47;;;;;;;10.23;9.33;;;;;;;;;;5093558;28;20564;-63
2023/09/04 06:50:16;;;;;;;11.13;10.13;;;;;;;;;;5093753;28;20553;-62
2023/09/04 06:52:43;;;;;;;11.60;10.00;;;;;;;;;;5093445;28;20445;-62
2023/09/04 06:55:10;;;;;;;11.10;9.93;;;;;;;;;;5093199;28;20603;-62
2023/09/04 06:57:38;;;;;;;9.97;8.97;;;;;;;;;;5093310;28;20454;-62
2023/09/04 07:00:08;;;;;;;10.00;9.10;;;;;;;;;;5093525;28;20989;-62
2023/09/04 07:02:35;;;;;;;10.00;8.90;;;;;;;;;;5093852;28;20432;-62
2023/09/04 07:05:03;;;;;;;10.10;8.33;;;;;;;;;;5093415;28;20442;-62
2023/09/04 07:07:35;;;;;;;9.70;8.33;;;;;;;;;;5093365;28;20626;-62
2023/09/04 07:10:02;;;;;;;10.90;8.90;;;;;;;;;;5093390;28;20503;-62
2023/09/04 07:12:29;;;;;;;10.07;8.97;;;;;;;;;;5093433;28;20492;-61
2023/09/04 07:14:57;;;;;;;10.60;8.47;;;;;;;;;;5093111;28;20531;-62
2023/09/04 07:17:24;;;;;;;10.13;9.13;;;;;;;;;;5092644;28;20449;-62
2023/09/04 07:19:51;;;;;;;10.27;8.87;;;;;;;;;;5092663;28;20799;-62
2023/09/04 07:22:18;;;;;;;9.27;8.47;;;;;;;;;;5093309;28;20535;-62
2023/09/04 07:24:47;;;;;;;9.77;8.87;;;;;;;;;;5097972;28;20535;-62
2023/09/04 07:27:14;;;;;;;10.30;9.20;;;;;;;;;;5099957;28;20483;-62
2023/09/04 07:29:41;;;;;;;12.53;7.83;;;;;;;;;;5099785;28;20607;-62
2023/09/04 07:32:08;;;;;;;10.57;8.60;;;;;;;;;;5099635;28;20444;-62
2023/09/04 07:34:35;;;;;;;9.40;8.50;;;;;;;;;;5099235;28;20815;-62
2023/09/04 07:37:03;;;;;;;10.10;9.10;;;;;;;;;;5099418;28;20530;-62
2023/09/04 07:39:30;;;;;;;13.30;8.97;;;;;;;;;;5099043;28;20442;-62
2023/09/04 07:41:58;;;;;;;9.47;8.40;;;;;;;;;;5099247;28;20807;-61
2023/09/04 07:44:26;;;;;;;9.57;8.50;;;;;;;;;;5099086;28;20525;-62
2023/09/04 07:46:53;;;;;;;9.90;9.00;;;;;;;;;;5098924;28;20472;-62
2023/09/04 07:49:20;;;;;;;10.50;8.27;;;;;;;;;;5099525;28;20441;-62
2023/09/04 07:51:47;;;;;;;14.10;8.80;;;;;;;;;;5099063;28;20529;-62
2023/09/04 07:54:14;;;;;;;8.93;8.00;;;;;;;;;;5098940;28;20566;-62
2023/09/04 07:56:42;;;;;;;8.90;8.00;;;;;;;;;;5099285;28;20779;-62
2023/09/04 07:59:10;;;;;;;11.20;8.90;;;;;;;;;;5099206;28;20440;-62
2023/09/04 08:01:38;;;;;;;9.93;8.67;;;;;;;;;;5099259;28;20441;-62
2023/09/04 08:04:06;;;;;;;9.23;8.33;;;;;;;;;;5099392;28;20453;-62
2023/09/04 08:06:33;;;;;;;9.90;8.17;;;;;;;;;;5099142;28;20937;-62
2023/09/04 08:09:00;;;;;;;8.63;7.93;;;;;;;;;;5098983;28;20565;-62
2023/09/04 08:11:27;;;;;;;12.37;7.97;;;;;;;;;;5098771;28;20520;-62
2023/09/04 08:13:54;;;;;;;9.13;7.63;;;;;;;;;;5098958;28;20540;-62
2023/09/04 08:16:23;;;;;;;8.60;7.80;;;;;;;;;;5099064;28;20533;-62
2023/09/04 08:18:50;;;;;;;8.40;7.70;;;;;;;;;;5099664;28;20434;-62
2023/09/04 08:21:18;;;;;;;9.93;8.33;;;;;;;;;;5099098;28;20478;-63
2023/09/04 08:23:45;;;;;;;14.43;12.90;;;;;;;;;;5099448;28;20441;-62
2023/09/04 08:26:14;;;;;;;11.63;10.70;;;;;;;;;;5098901;28;20471;-62
2023/09/04 08:28:41;;;;;;;8.70;7.80;;;;;;;;;;5098576;28;20593;-63
2023/09/04 08:31:09;;;;;;;8.80;8.00;;;;;;;;;;5097656;28;20541;-63
2023/09/04 08:33:37;;;;;;;8.20;7.40;;;;;;;;;;5099121;28;20525;-63
2023/09/04 08:36:04;;;;;;;9.53;7.90;;;;;;;;;;5096761;28;20521;-62
2023/09/04 08:38:32;;;;;;;8.07;7.00;;;;;;;;;;5096117;28;20521;-62
2023/09/04 08:41:02;;;;;;;15.83;8.90;;;;;;;;;;5095818;28;20439;-62
2023/09/04 08:43:31;;;;;;;8.60;7.90;;;;;;;;;;5095764;28;20433;-62
2023/09/04 08:45:59;;;;;;;8.87;7.80;;;;;;;;;;5095180;28;20443;-63
2023/09/04 08:48:29;;;;;;;9.17;7.90;;;;;;;;;;5095432;28;20480;-62
2023/09/04 08:50:58;;;;;;;12.50;8.37;;;;;;;;;;5096452;28;20422;-62
2023/09/04 08:53:25;;;;;;;10.70;8.00;;;;;;;;;;5095448;28;20509;-62
2023/09/04 08:55:53;;;;;;;9.00;8.20;;;;;;;;;;5095268;28;20504;-62
2023/09/04 08:58:21;;;;;;;9.80;7.77;;;;;;;;;;5095683;28;20448;-62
2023/09/04 09:00:49;;;;;;;8.97;8.07;;;;;;;;;;5094943;28;20532;-62
2023/09/04 09:03:17;;;;;;;16.10;8.67;;;;;;;;;;5095014;28;21031;-62
2023/09/04 09:05:45;;;;;;;9.37;8.33;;;;;;;;;;5095239;28;20434;-62
2023/09/04 09:08:13;;;;;;;9.40;7.97;;;;;;;;;;5095255;28;20478;-62
2023/09/04 09:10:41;;;;;;;7.83;7.13;;;;;;;;;;5094952;28;20658;-62
2023/09/04 09:13:09;;;;;;;9.50;8.50;;;;;;;;;;5095336;28;20522;-62
2023/09/04 09:15:36;;;;;;;8.87;7.43;;;;;;;;;;5094973;28;20458;-62
2023/09/04 09:18:03;;;;;;;11.70;9.83;;;;;;;;;;5094896;28;20438;-62
2023/09/04 09:20:31;;;;;;;9.57;8.60;;;;;;;;;;5095177;28;20805;-62
2023/09/04 09:22:58;;;;;;;7.53;6.83;;;;;;;;;;5095459;28;20444;-62
2023/09/04 09:25:28;;;;;;;7.13;6.43;;;;;;;;;;5094704;28;20449;-62
2023/09/04 09:28:00;;;;;;;8.73;7.77;;;;;;;;;;5094535;28;20510;-62
2023/09/04 09:30:30;;;;;;;7.67;6.83;;;;;;;;;;5094902;28;20430;-62
2023/09/04 09:32:58;;;;;;;8.83;6.77;;;;;;;;;;5094455;28;20921;-61
2023/09/04 09:35:25;;;;;;;10.43;8.73;;;;;;;;;;5094105;28;21006;-62
2023/09/04 09:37:55;;;;;;;7.70;6.93;;;;;;;;;;5094634;28;20447;-62
2023/09/04 09:40:22;;;;;;;7.57;6.77;;;;;;;;;;5094677;28;20442;-62
2023/09/04 09:42:51;;;;;;;9.13;6.80;;;;;;;;;;5094447;28;20550;-62
2023/09/04 09:45:18;;;;;;;7.50;6.13;;;;;;;;;;5094265;28;20789;-62
2023/09/04 09:47:46;;;;;;;6.07;5.47;;;;;;;;;;5093345;28;20519;-62
2023/09/04 09:50:15;;;;;;;5.87;5.30;;;;;;;;;;5094184;28;20448;-62
2023/09/04 09:52:57;;;;;;;6.20;4.77;;;;;;;;;;5094572;28;20454;-62
2023/09/04 09:55:25;;;;;;;12.13;6.60;;;;;;;;;;5093917;28;20439;-62
2023/09/04 09:57:54;;;;;;;8.30;6.20;;;;;;;;;;5094180;28;20450;-62
2023/09/04 10:00:21;;;;;;;6.67;5.80;;;;;;;;;;5094074;28;20447;-62
2023/09/04 10:02:49;;;;;;;7.20;6.50;;;;;;;;;;5094001;28;20563;-62
2023/09/04 10:05:16;;;;;;;6.33;5.83;;;;;;;;;;5094007;28;20877;-62
2023/09/04 10:07:46;;;;;;;7.13;6.53;;;;;;;;;;5093969;28;20478;-62
2023/09/04 10:10:13;;;;;;;8.77;7.97;;;;;;;;;;5093864;28;20446;-62
2023/09/04 10:12:43;;;;;;;11.90;7.60;;;;;;;;;;5093963;28;20474;-62
2023/09/04 10:15:12;;;;;;;11.03;8.17;;;;;;;;;;5093805;28;20931;-62
2023/09/04 10:17:44;;;;;;;9.63;6.70;;;;;;;;;;5094072;28;20783;-62
2023/09/04 10:20:12;;;;;;;7.80;6.43;;;;;;;;;;5093540;28;20522;-62
2023/09/04 10:22:40;;;;;;;9.17;6.10;;;;;;;;;;5093946;28;20447;-62
2023/09/04 10:25:10;;;;;;;7.10;6.37;;;;;;;;;;5093699;28;20440;-62
2023/09/04 10:27:43;;;;;;;6.27;5.57;;;;;;;;;;5093495;28;20434;-62
2023/09/04 10:30:14;;;;;;;7.83;7.13;;;;;;;;;;5094268;28;20445;-62
2023/09/04 10:32:42;;;;;;;6.90;6.27;;;;;;;;;;5093631;28;20852;-62
2023/09/04 10:35:10;;;;;;;7.67;6.97;;;;;;;;;;5093718;28;20435;-62
2023/09/04 10:37:38;;;;;;;10.27;6.80;;;;;;;;;;5093455;28;20462;-62
2023/09/04 10:40:09;;;;;;;6.73;6.13;;;;;;;;;;5093155;28;20554;-62
2023/09/04 10:42:36;;;;;;;7.33;6.63;;;;;;;;;;5092844;28;20427;-62
2023/09/04 10:45:13;;;;;;;8.60;6.97;;;;;;;;;;5093559;28;20534;-62
2023/09/04 10:47:46;;;;;;;7.20;6.70;;;;;;;;;;5093001;28;20518;-62
2023/09/04 10:50:28;;;;;;;7.07;6.47;;;;;;;;;;5093144;28;20439;-62
2023/09/04 10:52:56;;;;;;;7.03;6.27;;;;;;;;;;5092531;28;20548;-62
2023/09/04 10:55:24;;;;;;;6.37;5.77;;;;;;;;;;5092859;28;20942;-62
2023/09/04 10:57:54;;;;;;;6.73;6.03;;;;;;;;;;5092301;28;20439;-62
2023/09/04 11:00:30;;;;;;;7.07;5.90;;;;;;;;;;5092927;28;20447;-62
2023/09/04 11:02:58;;;;;;;6.30;5.80;;;;;;;;;;5092900;28;20445;-62
2023/09/04 11:05:26;;;;;;;6.17;5.67;;;;;;;;;;5092553;28;20949;-62
2023/09/04 11:07:53;;;;;;;7.20;6.47;;;;;;;;;;5092397;28;20980;-62
2023/09/04 11:10:37;;;;;;;10.27;7.70;;;;;;;;;;5092961;28;20440;-62
2023/09/04 11:13:04;;;;;;;6.13;5.63;;;;;;;;;;5092841;28;20435;-62
2023/09/04 11:15:34;;;;;;;8.30;6.47;;;;;;;;;;5093363;28;20444;-62
2023/09/04 11:18:02;;;;;;;8.60;6.70;;;;;;;;;;5092487;28;20424;-62
2023/09/04 11:20:30;;;;;;;7.17;6.50;;;;;;;;;;5092952;28;20447;-62
2023/09/04 11:22:58;;;;;;;8.47;5.20;;;;;;;;;;5092748;28;20450;-62
2023/09/04 11:25:25;;;;;;;4.73;4.33;;;;;;;;;;5092952;28;20451;-62
2023/09/04 11:27:52;;;;;;;6.23;4.70;;;;;;;;;;5092809;28;20432;-71
2023/09/04 11:30:20;;;;;;;4.97;4.57;;;;;;;;;;5093162;28;20462;-62
2023/09/04 11:32:48;;;;;;;5.10;4.60;;;;;;;;;;5092719;28;20439;-62
2023/09/04 11:35:16;;;;;;;5.13;4.63;;;;;;;;;;5092963;28;20443;-63
2023/09/04 11:37:44;;;;;;;8.70;6.80;;;;;;;;;;5092572;28;20442;-62
2023/09/04 11:40:11;;;;;;;5.70;5.10;;;;;;;;;;5091540;28;20524;-63
2023/09/04 11:42:38;;;;;;;5.50;5.00;;;;;;;;;;5092614;28;20771;-62
2023/09/04 11:45:06;;;;;;;7.90;4.60;;;;;;;;;;5092073;28;20492;-63
2023/09/04 11:47:34;;;;;;;6.07;4.80;;;;;;;;;;5092235;28;20485;-63
2023/09/04 11:50:03;;;;;;;5.93;4.30;;;;;;;;;;5092376;28;20570;-62
2023/09/04 11:52:30;;;;;;;5.13;4.30;;;;;;;;;;5092160;28;20436;-62
2023/09/04 11:54:57;;;;;;;7.43;5.10;;;;;;;;;;5092506;28;20554;-62
2023/09/04 11:57:25;;;;;;;6.10;4.80;;;;;;;;;;5092021;28;20480;-63
2023/09/04 11:59:52;;;;;;;9.63;6.90;;;;;;;;;;5092313;28;20535;-62
2023/09/04 12:02:19;;;;;;;5.13;4.73;;;;;;;;;;5092612;28;20466;-62
2023/09/04 12:04:46;;;;;;;5.27;4.53;;;;;;;;;;5092221;28;20439;-62
2023/09/04 12:07:16;;;;;;;4.87;4.37;;;;;;;;;;5091850;28;20983;-62
2023/09/04 12:09:43;;;;;;;6.80;4.00;;;;;;;;;;5092370;28;20472;-62
2023/09/04 12:12:10;;;;;;;5.13;4.27;;;;;;;;;;5096096;28;20543;-62
2023/09/04 12:14:45;;;;;;;4.40;3.50;;;;;;;;;;5095615;28;20438;-62
2023/09/04 12:17:12;;;;;;;4.17;3.77;;;;;;;;;;5095760;28;20904;-62
2023/09/04 12:19:39;;;;;;;11.13;4.50;;;;;;;;;;5095733;28;20543;-62
2023/09/04 12:22:15;;;;;;;4.80;4.40;;;;;;;;;;5095725;28;20537;-62
2023/09/04 12:24:58;;;;;;;9.23;4.43;;;;;;;;;;5095507;28;20437;-62
2023/09/04 12:27:25;;;;;;;5.30;4.20;;;;;;;;;;5096136;28;20849;-62
2023/09/04 12:29:52;;;;;;;5.17;4.77;;;;;;;;;;5095764;28;20485;-62
2023/09/04 12:32:22;;;;;;;5.93;3.60;;;;;;;;;;5096229;28;20784;-62
2023/09/04 12:34:50;;;;;;;3.70;3.33;;;;;;;;;;5095298;28;20942;-62
2023/09/04 12:37:19;;;;;;;4.07;3.30;;;;;;;;;;5094626;28;20452;-62
2023/09/04 12:39:47;;;;;;;3.50;3.13;;;;;;;;;;5095421;28;20455;-62
2023/09/04 12:42:14;;;;;;;4.20;3.60;;;;;;;;;;5095515;28;20432;-62
2023/09/04 12:44:41;;;;;;;4.30;3.90;;;;;;;;;;5095016;28;20899;-62
2023/09/04 12:47:08;;;;;;;3.00;2.80;;;;;;;;;;5094953;28;20799;-62
2023/09/04 12:49:36;;;;;;;4.50;3.33;;;;;;;;;;5095256;28;20522;-62
2023/09/04 12:52:03;;;;;;;4.57;3.87;;;;;;;;;;5094755;28;20478;-62
2023/09/04 12:54:31;;;;;;;3.63;3.23;;;;;;;;;;5095576;28;20545;-62
2023/09/04 12:56:59;;;;;;;4.63;3.47;;;;;;;;;;5095174;28;20518;-62
2023/09/04 12:59:26;;;;;;;4.20;3.07;;;;;;;;;;5095073;28;20522;-62
2023/09/04 13:01:53;;;;;;;3.30;3.00;;;;;;;;;;5094986;28;20443;-62
2023/09/04 13:04:21;;;;;;;4.20;2.90;;;;;;;;;;5094703;28;20445;-62
2023/09/04 13:06:48;;;;;;;3.47;3.17;;;;;;;;;;5094552;28;20462;-62
2023/09/04 13:09:16;;;;;;;4.73;2.87;;;;;;;;;;5094639;28;20471;-62
2023/09/04 13:11:45;;;;;;;6.07;2.77;;;;;;;;;;5094960;28;20432;-62
2023/09/04 13:14:12;;;;;;;3.50;2.43;;;;;;;;;;5094666;28;20534;-62
2023/09/04 13:16:39;;;;;;;3.00;2.30;;;;;;;;;;5094503;28;20955;-62
2023/09/04 13:19:06;;;;;;;6.70;3.00;;;;;;;;;;5094523;28;20791;-62
2023/09/04 13:21:33;;;;;;;3.07;2.70;;;;;;;;;;5094108;28;20850;-62
2023/09/04 13:24:01;;;;;;;4.53;3.10;;;;;;;;;;5094292;28;20436;-62
2023/09/04 13:26:28;;;;;;;3.10;2.90;;;;;;;;;;5094425;28;20443;-62
2023/09/04 13:28:57;;;;;;;4.47;3.07;;;;;;;;;;5094303;28;20978;-62
2023/09/04 13:31:24;;;;;;;4.40;2.90;;;;;;;;;;5094284;28;20444;-62
2023/09/04 13:33:51;;;;;;;3.53;2.67;;;;;;;;;;5094235;28;20965;-62
2023/09/04 13:36:18;;;;;;;3.30;3.00;;;;;;;;;;5094630;28;20532;-62
2023/09/04 13:38:45;;;;;;;2.83;2.63;;;;;;;;;;5094125;28;20969;-62
2023/09/04 13:41:13;;;;;;;7.57;6.87;;;;;;;;;;5094241;28;20794;-62
2023/09/04 13:43:42;;;;;;;3.03;2.67;;;;;;;;;;5094065;28;20814;-62
2023/09/04 13:46:11;;;;;;;2.90;2.20;;;;;;;;;;5094154;28;20499;-61
2023/09/04 13:48:38;;;;;;;3.10;2.80;;;;;;;;;;5093694;28;20474;-62
2023/09/04 13:51:06;;;;;;;3.07;2.77;;;;;;;;;;5093866;28;20912;-62
2023/09/04 13:53:33;;;;;;;4.40;2.70;;;;;;;;;;5094396;28;20496;-62
2023/09/04 13:56:01;;;;;;;4.20;3.10;;;;;;;;;;5094021;28;20435;-62
2023/09/04 13:58:28;;;;;;;6.30;2.47;;;;;;;;;;5094170;28;20559;-62
2023/09/04 14:00:55;;;;;;;3.40;2.40;;;;;;;;;;5093954;28;20498;-62
2023/09/04 14:03:24;;;;;;;3.80;2.57;;;;;;;;;;5094089;28;20534;-62
2023/09/04 14:05:51;;;;;;;8.80;2.87;;;;;;;;;;5094065;28;20474;-62
2023/09/04 14:08:18;;;;;;;3.50;2.87;;;;;;;;;;5093739;28;20417;-62
2023/09/04 14:10:45;;;;;;;3.07;2.77;;;;;;;;;;5093755;28;20475;-62
2023/09/04 14:13:13;;;;;;;2.70;2.50;;;;;;;;;;5094478;28;20449;-62
2023/09/04 14:15:40;;;;;;;4.43;2.70;;;;;;;;;;5093781;28;20451;-63
2023/09/04 14:18:07;;;;;;;5.73;3.13;;;;;;;;;;5093668;28;20442;-62
2023/09/04 14:20:36;;;;;;;7.90;3.83;;;;;;;;;;5093000;28;20450;-63
2023/09/04 14:23:03;;;;;;;6.17;3.10;;;;;;;;;;5093521;28;20440;-62
2023/09/04 14:25:30;;;;;;;4.03;3.43;;;;;;;;;;5093432;28;20465;-63
2023/09/04 14:27:57;;;;;;;5.93;3.30;;;;;;;;;;5093614;28;20474;-63
2023/09/04 14:30:24;;;;;;;4.17;3.77;;;;;;;;;;5092899;28;20559;-63
2023/09/04 14:32:52;;;;;;;8.50;7.70;;;;;;;;;;5093370;28;20866;-62
2023/09/04 14:35:19;;;;;;;5.60;3.20;;;;;;;;;;5093531;28;20496;-63
2023/09/04 14:37:49;;;;;;;7.43;4.33;;;;;;;;;;5093561;28;20445;-62